createdAt,value
2023-06-15T00:02:20.078Z,14.94
2023-06-15T00:04:47.915Z,14.93
2023-06-15T00:07:15.692Z,14.93
2023-06-15T00:09:44.149Z,14.90
2023-06-15T00:12:11.795Z,14.84
2023-06-15T00:14:39.483Z,14.77
2023-06-15T00:17:09.545Z,14.70
2023-06-15T00:19:37.495Z,14.61
2023-06-15T00:22:05.904Z,14.51
2023-06-15T00:24:33.714Z,14.44
2023-06-15T00:27:01.420Z,14.38
2023-06-15T00:29:29.039Z,14.33
2023-06-15T00:31:57.151Z,14.33
2023-06-15T00:34:25.171Z,14.34
2023-06-15T00:36:52.755Z,14.34
2023-06-15T00:39:20.769Z,14.33
2023-06-15T00:41:48.613Z,14.32
2023-06-15T00:44:16.183Z,14.29
2023-06-15T00:46:43.813Z,14.28
2023-06-15T00:49:11.458Z,14.27
2023-06-15T00:51:39.981Z,14.23
2023-06-15T00:54:08.649Z,14.22
2023-06-15T00:56:36.266Z,14.22
2023-06-15T00:59:04.302Z,14.19
2023-06-15T01:01:31.986Z,14.17
2023-06-15T01:04:01.510Z,14.17
2023-06-15T01:06:32.507Z,14.15
2023-06-15T01:09:00.076Z,14.14
2023-06-15T01:11:29.716Z,14.12
2023-06-15T01:13:58.845Z,14.11
2023-06-15T01:16:26.991Z,14.06
2023-06-15T01:18:57.637Z,13.99
2023-06-15T01:21:25.344Z,13.91
2023-06-15T01:23:53.007Z,13.83
2023-06-15T01:26:22.114Z,13.80
2023-06-15T01:28:50.811Z,13.78
2023-06-15T01:31:18.661Z,13.74
2023-06-15T01:33:46.623Z,13.73
2023-06-15T01:36:14.591Z,13.70
2023-06-15T01:38:42.656Z,13.66
2023-06-15T01:41:10.277Z,13.65
2023-06-15T01:43:37.915Z,13.62
2023-06-15T01:46:05.651Z,13.57
2023-06-15T01:48:33.694Z,13.52
2023-06-15T01:51:01.453Z,13.49
2023-06-15T01:53:29.041Z,13.43
2023-06-15T01:55:56.821Z,13.40
2023-06-15T01:58:24.405Z,13.38
2023-06-15T02:00:52.816Z,13.36
2023-06-15T02:03:20.543Z,13.32
2023-06-15T02:05:48.202Z,13.30
2023-06-15T02:08:15.861Z,13.27
2023-06-15T02:10:43.532Z,13.26
2023-06-15T02:13:11.567Z,13.25
2023-06-15T02:15:40.152Z,13.28
2023-06-15T02:18:13.732Z,13.30
2023-06-15T02:20:41.682Z,13.36
2023-06-15T02:23:09.476Z,13.42
2023-06-15T02:25:37.502Z,13.45
2023-06-15T02:28:05.070Z,13.44
2023-06-15T02:30:32.669Z,13.43
2023-06-15T02:33:01.910Z,13.42
2023-06-15T02:35:29.726Z,13.40
2023-06-15T02:37:57.752Z,13.36
2023-06-15T02:40:25.431Z,13.33
2023-06-15T02:42:53.044Z,13.30
2023-06-15T02:45:22.223Z,13.28
2023-06-15T02:47:49.908Z,13.25
2023-06-15T02:50:19.421Z,13.23
2023-06-15T02:52:48.026Z,13.18
2023-06-15T02:55:15.956Z,13.14
2023-06-15T02:57:43.870Z,13.08
2023-06-15T03:00:15.163Z,13.04
2023-06-15T03:02:44.748Z,12.99
2023-06-15T03:05:12.476Z,12.94
2023-06-15T03:07:41.938Z,12.89
2023-06-15T03:10:09.779Z,12.82
2023-06-15T03:12:37.407Z,12.78
2023-06-15T03:15:05.431Z,12.76
2023-06-15T03:17:34.113Z,12.73
2023-06-15T03:20:01.902Z,12.72
2023-06-15T03:22:29.624Z,12.71
2023-06-15T03:24:57.268Z,12.71
2023-06-15T03:27:24.942Z,12.70
2023-06-15T03:29:53.030Z,12.70
2023-06-15T03:32:21.349Z,12.69
2023-06-15T03:34:49.322Z,12.69
2023-06-15T03:37:16.934Z,12.67
2023-06-15T03:39:44.937Z,12.66
2023-06-15T03:42:12.559Z,12.72
2023-06-15T03:44:40.164Z,12.86
2023-06-15T03:47:07.966Z,12.90
2023-06-15T03:49:35.840Z,12.90
2023-06-15T03:52:03.830Z,12.88
2023-06-15T03:54:31.504Z,12.84
2023-06-15T03:56:59.085Z,12.81
2023-06-15T03:59:26.876Z,12.78
2023-06-15T04:01:54.516Z,12.76
2023-06-15T04:04:22.556Z,12.73
2023-06-15T04:06:54.313Z,12.76
2023-06-15T04:09:22.444Z,12.78
2023-06-15T04:11:50.035Z,12.82
2023-06-15T04:14:19.381Z,12.92
2023-06-15T04:16:47.456Z,13.00
2023-06-15T04:19:15.418Z,13.07
2023-06-15T04:21:43.030Z,13.15
2023-06-15T04:24:10.914Z,13.21
2023-06-15T04:26:38.570Z,13.31
2023-06-15T04:29:06.577Z,13.40
2023-06-15T04:31:35.170Z,13.52
2023-06-15T04:34:06.016Z,13.63
2023-06-15T04:36:35.972Z,13.74
2023-06-15T04:39:04.029Z,13.86
2023-06-15T04:41:32.530Z,13.96
2023-06-15T04:44:00.236Z,14.06
2023-06-15T04:46:29.288Z,14.15
2023-06-15T04:48:57.676Z,14.23
2023-06-15T04:51:25.349Z,14.31
2023-06-15T04:53:53.340Z,14.37
2023-06-15T04:56:22.525Z,14.43
2023-06-15T04:58:50.312Z,14.50
2023-06-15T05:01:17.973Z,14.56
2023-06-15T05:03:45.754Z,14.64
2023-06-15T05:06:14.103Z,14.73
2023-06-15T05:08:41.781Z,14.80
2023-06-15T05:11:09.411Z,14.88
2023-06-15T05:13:37.169Z,15.00
2023-06-15T05:16:04.830Z,15.17
2023-06-15T05:18:33.405Z,15.40
2023-06-15T05:21:01.235Z,15.66
2023-06-15T05:23:30.169Z,15.90
2023-06-15T05:25:58.104Z,16.11
2023-06-15T05:28:28.241Z,16.28
2023-06-15T05:30:56.486Z,16.44
2023-06-15T05:33:24.239Z,16.56
2023-06-15T05:35:52.076Z,16.69
2023-06-15T05:38:21.621Z,16.82
2023-06-15T05:40:49.838Z,16.97
2023-06-15T05:43:17.754Z,17.13
2023-06-15T05:48:13.427Z,17.38
2023-06-15T05:50:41.335Z,17.45
2023-06-15T05:53:09.010Z,17.49
2023-06-15T05:55:36.908Z,17.59
2023-06-15T05:58:04.712Z,17.70
2023-06-15T06:00:33.074Z,17.78
2023-06-15T06:03:02.840Z,17.91
2023-06-15T06:05:31.387Z,18.00
2023-06-15T06:07:59.427Z,18.08
2023-06-15T06:10:27.145Z,18.17
2023-06-15T06:12:55.078Z,18.26
2023-06-15T06:15:23.381Z,18.34
2023-06-15T06:18:07.928Z,18.40
2023-06-15T06:20:38.210Z,18.55
2023-06-15T06:23:06.051Z,18.69
2023-06-15T06:25:34.050Z,18.83
2023-06-15T06:28:01.976Z,18.97
2023-06-15T06:30:29.801Z,19.11
2023-06-15T06:33:00.611Z,19.27
2023-06-15T06:35:29.533Z,19.39
2023-06-15T06:37:57.686Z,19.53
2023-06-15T06:40:27.081Z,19.65
2023-06-15T06:42:55.032Z,19.79
2023-06-15T06:45:23.615Z,19.88
2023-06-15T06:47:51.622Z,19.99
2023-06-15T06:50:19.858Z,20.07
2023-06-15T06:52:47.664Z,20.16
2023-06-15T06:55:15.881Z,20.26
2023-06-15T06:57:44.384Z,20.33
2023-06-15T07:00:12.313Z,20.40
2023-06-15T07:02:40.434Z,20.44
2023-06-15T07:05:08.453Z,20.50
2023-06-15T07:07:36.579Z,20.61
2023-06-15T07:10:05.044Z,20.75
2023-06-15T07:12:32.956Z,20.88
2023-06-15T07:15:00.711Z,21.02
2023-06-15T07:17:28.523Z,21.13
2023-06-15T07:19:56.527Z,21.28
2023-06-15T07:22:25.589Z,21.42
2023-06-15T07:24:53.487Z,21.52
2023-06-15T07:27:21.911Z,21.64
2023-06-15T07:29:50.327Z,21.74
2023-06-15T07:32:18.123Z,21.82
2023-06-15T07:34:46.641Z,21.89
2023-06-15T07:37:14.590Z,21.95
2023-06-15T07:39:42.875Z,22.04
2023-06-15T07:42:10.868Z,22.14
2023-06-15T07:44:38.877Z,22.24
2023-06-15T07:47:08.070Z,22.32
2023-06-15T07:49:45.705Z,22.43
2023-06-15T07:52:14.744Z,22.53
2023-06-15T07:54:43.427Z,22.62
2023-06-15T07:57:11.877Z,22.73
2023-06-15T07:59:39.771Z,22.82
2023-06-15T08:02:07.818Z,22.91
2023-06-15T08:04:35.868Z,23.03
2023-06-15T08:07:03.694Z,23.14
2023-06-15T08:09:32.183Z,23.24
2023-06-15T08:12:01.544Z,23.38
2023-06-15T08:14:29.587Z,23.51
2023-06-15T08:16:58.003Z,23.63
2023-06-15T08:19:26.657Z,23.70
2023-06-15T08:21:55.149Z,23.77
2023-06-15T08:24:23.353Z,23.87
2023-06-15T08:26:51.370Z,23.98
2023-06-15T08:29:23.990Z,24.07
2023-06-15T08:31:53.010Z,24.18
2023-06-15T08:34:21.286Z,24.32
2023-06-15T08:36:50.730Z,24.44
2023-06-15T08:39:19.118Z,24.59
2023-06-15T08:41:47.076Z,24.75
2023-06-15T08:44:15.061Z,24.87
2023-06-15T08:46:44.217Z,24.99
2023-06-15T08:49:12.180Z,25.10
2023-06-15T08:51:39.936Z,25.20
2023-06-15T08:54:09.951Z,25.30
2023-06-15T08:56:39.739Z,25.40
2023-06-15T08:59:08.456Z,25.52
2023-06-15T09:01:41.181Z,25.64
2023-06-15T09:04:09.151Z,25.72
2023-06-15T09:06:37.255Z,25.83
2023-06-15T09:09:05.588Z,25.94
2023-06-15T09:11:34.384Z,26.00
2023-06-15T09:14:02.256Z,26.07
2023-06-15T09:16:30.534Z,26.15
2023-06-15T09:18:58.723Z,26.26
2023-06-15T09:21:27.795Z,26.36
2023-06-15T09:23:56.187Z,26.44
2023-06-15T09:26:24.578Z,26.54
2023-06-15T09:28:53.786Z,26.64
2023-06-15T09:31:21.860Z,26.75
2023-06-15T09:33:51.984Z,26.90
2023-06-15T09:36:20.915Z,27.01
2023-06-15T09:38:49.953Z,26.96
2023-06-15T09:41:18.184Z,26.94
2023-06-15T09:43:46.168Z,26.99
2023-06-15T09:46:14.289Z,27.09
2023-06-15T09:48:42.469Z,27.24
2023-06-15T09:51:10.379Z,27.33
2023-06-15T09:53:38.940Z,27.15
2023-06-15T09:56:17.208Z,27.04
2023-06-15T09:58:55.362Z,27.21
2023-06-15T10:01:23.511Z,27.39
2023-06-15T10:03:53.953Z,27.71
2023-06-15T10:06:22.291Z,28.04
2023-06-15T10:08:53.061Z,28.36
2023-06-15T10:11:21.051Z,28.71
2023-06-15T10:13:49.101Z,29.05
2023-06-15T10:16:18.085Z,29.41
2023-06-15T10:18:45.926Z,29.79
2023-06-15T10:21:14.014Z,30.20
2023-06-15T10:23:45.037Z,30.59
2023-06-15T10:26:12.968Z,30.96
2023-06-15T10:28:43.591Z,31.19
2023-06-15T10:31:11.413Z,30.90
2023-06-15T10:33:39.308Z,31.10
2023-06-15T10:36:07.309Z,31.58
2023-06-15T10:38:37.785Z,32.11
2023-06-15T10:41:06.483Z,32.64
2023-06-15T10:43:34.558Z,32.97
2023-06-15T10:46:03.848Z,33.27
2023-06-15T10:48:31.873Z,33.59
2023-06-15T10:50:59.873Z,33.94
2023-06-15T10:53:27.963Z,34.14
2023-06-15T10:55:56.789Z,34.21
2023-06-15T10:58:25.958Z,34.42
2023-06-15T11:00:55.953Z,34.34
2023-06-15T11:03:24.045Z,33.31
2023-06-15T11:05:52.201Z,32.28
2023-06-15T11:08:20.165Z,31.30
2023-06-15T11:10:48.137Z,30.67
2023-06-15T11:13:16.545Z,31.00
2023-06-15T11:15:44.503Z,31.13
2023-06-15T11:18:13.090Z,30.91
2023-06-15T11:20:41.320Z,30.30
2023-06-15T11:23:11.441Z,29.60
2023-06-15T11:25:40.125Z,28.99
2023-06-15T11:28:11.496Z,28.46
2023-06-15T11:30:41.181Z,28.01
2023-06-15T11:33:09.411Z,27.66
2023-06-15T11:35:37.453Z,27.38
2023-06-15T11:38:05.732Z,27.14
2023-06-15T11:40:33.715Z,26.97
2023-06-15T11:43:02.025Z,26.89
2023-06-15T11:45:29.981Z,26.81
2023-06-15T11:47:57.946Z,26.74
2023-06-15T11:50:26.191Z,26.74
2023-06-15T11:52:54.081Z,26.77
2023-06-15T11:55:22.093Z,26.80
2023-06-15T11:57:49.958Z,26.84
2023-06-15T12:00:18.163Z,26.87
2023-06-15T12:02:46.884Z,26.93
2023-06-15T12:05:15.270Z,27.08
2023-06-15T12:07:44.108Z,27.34
2023-06-15T12:10:13.352Z,27.59
2023-06-15T12:12:41.390Z,27.72
2023-06-15T12:15:09.522Z,27.76
2023-06-15T12:17:37.713Z,27.72
2023-06-15T12:20:10.099Z,27.72
2023-06-15T12:22:38.411Z,28.17
2023-06-15T12:25:06.456Z,28.48
2023-06-15T12:27:35.609Z,29.27
2023-06-15T12:30:05.102Z,30.08
2023-06-15T12:32:33.582Z,30.25
2023-06-15T12:35:01.575Z,30.27
2023-06-15T12:37:38.943Z,30.89
2023-06-15T12:40:14.835Z,31.45
2023-06-15T12:42:43.114Z,31.53
2023-06-15T12:45:11.372Z,31.40
2023-06-15T12:47:39.797Z,30.93
2023-06-15T12:50:08.067Z,31.31
2023-06-15T12:52:37.803Z,32.06
2023-06-15T12:55:06.206Z,32.80
2023-06-15T12:57:34.219Z,33.54
2023-06-15T13:00:02.205Z,34.10
2023-06-15T13:02:30.345Z,34.64
2023-06-15T13:05:02.656Z,34.77
2023-06-15T13:07:32.576Z,34.94
2023-06-15T13:10:00.755Z,35.27
2023-06-15T13:12:28.650Z,35.47
2023-06-15T13:14:56.676Z,35.57
2023-06-15T13:17:25.160Z,35.60
2023-06-15T13:19:53.473Z,35.78
2023-06-15T13:22:21.328Z,36.08
2023-06-15T13:24:49.393Z,36.39
2023-06-15T13:27:19.100Z,36.44
2023-06-15T13:29:49.628Z,36.22
2023-06-15T13:32:18.256Z,36.07
2023-06-15T13:34:46.273Z,35.93
2023-06-15T13:37:17.563Z,35.72
2023-06-15T13:39:45.918Z,35.58
2023-06-15T13:42:14.992Z,35.27
2023-06-15T13:44:43.193Z,34.97
2023-06-15T13:47:11.083Z,34.87
2023-06-15T13:49:39.070Z,34.87
2023-06-15T13:52:06.873Z,35.00
2023-06-15T13:54:35.022Z,35.06
2023-06-15T13:57:03.291Z,35.29
2023-06-15T13:59:32.027Z,35.40
2023-06-15T14:02:00.148Z,35.35
2023-06-15T14:04:31.169Z,35.20
2023-06-15T14:07:00.649Z,35.05
2023-06-15T14:09:28.740Z,34.99
2023-06-15T14:11:59.176Z,34.77
2023-06-15T14:14:27.139Z,34.58
2023-06-15T14:16:55.215Z,34.47
2023-06-15T14:19:23.611Z,34.54
2023-06-15T14:21:52.044Z,34.78
2023-06-15T14:24:20.724Z,35.02
2023-06-15T14:26:48.709Z,35.42
2023-06-15T14:29:17.047Z,35.73
2023-06-15T14:31:47.814Z,36.11
2023-06-15T14:34:17.899Z,36.43
2023-06-15T14:36:46.439Z,36.63
2023-06-15T14:39:14.586Z,36.72
2023-06-15T14:41:42.388Z,36.69
2023-06-15T14:44:10.801Z,35.94
2023-06-15T14:46:41.042Z,35.68
2023-06-15T14:49:08.930Z,35.98
2023-06-15T14:51:37.312Z,36.29
2023-06-15T14:54:05.557Z,36.67
2023-06-15T14:56:34.446Z,36.89
2023-06-15T14:59:02.477Z,37.22
2023-06-15T15:01:30.632Z,37.58
2023-06-15T15:03:58.613Z,37.85
2023-06-15T15:06:26.545Z,38.12
2023-06-15T15:08:54.600Z,38.33
2023-06-15T15:11:22.899Z,38.30
2023-06-15T15:13:50.828Z,38.11
2023-06-15T15:16:21.595Z,37.28
2023-06-15T15:18:52.380Z,35.74
2023-06-15T15:21:20.831Z,34.21
2023-06-15T15:23:48.970Z,33.21
2023-06-15T15:26:17.009Z,32.29
2023-06-15T15:28:44.855Z,32.51
2023-06-15T15:31:12.950Z,32.64
2023-06-15T15:33:41.223Z,32.39
2023-06-15T15:36:09.360Z,32.63
2023-06-15T15:38:38.200Z,33.48
2023-06-15T15:41:06.913Z,34.33
2023-06-15T15:43:34.870Z,34.86
2023-06-15T15:46:03.595Z,35.16
2023-06-15T15:48:31.902Z,35.46
2023-06-15T15:50:59.907Z,35.81
2023-06-15T15:53:27.944Z,36.08
2023-06-15T15:55:56.002Z,36.33
2023-06-15T15:58:23.900Z,36.62
2023-06-15T16:00:52.542Z,36.82
2023-06-15T16:03:20.884Z,37.07
2023-06-15T16:05:48.881Z,37.18
2023-06-15T16:08:16.987Z,37.19
2023-06-15T16:10:45.834Z,37.11
2023-06-15T16:13:14.158Z,36.94
2023-06-15T16:15:42.319Z,36.76
2023-06-15T16:18:11.264Z,36.68
2023-06-15T16:20:39.291Z,36.57
2023-06-15T16:23:07.872Z,36.25
2023-06-15T16:25:37.192Z,35.38
2023-06-15T16:28:05.266Z,34.21
2023-06-15T16:30:33.202Z,33.09
2023-06-15T16:33:01.243Z,32.11
2023-06-15T16:35:29.847Z,31.39
2023-06-15T16:37:57.848Z,30.68
2023-06-15T16:40:25.813Z,30.23
2023-06-15T16:42:53.742Z,30.03
2023-06-15T16:45:21.758Z,29.75
2023-06-15T16:47:50.498Z,29.62
2023-06-15T16:50:19.189Z,29.80
2023-06-15T16:52:48.323Z,29.98
2023-06-15T16:55:16.561Z,30.03
2023-06-15T16:57:44.498Z,29.87
2023-06-15T17:00:12.741Z,29.45
2023-06-15T17:02:41.602Z,28.95
2023-06-15T17:05:09.639Z,28.50
2023-06-15T17:07:37.646Z,28.11
2023-06-15T17:10:06.137Z,27.79
2023-06-15T17:12:37.138Z,27.52
2023-06-15T17:15:05.507Z,27.27
2023-06-15T17:17:33.526Z,27.07
2023-06-15T17:20:01.507Z,26.90
2023-06-15T17:22:29.463Z,26.73
2023-06-15T17:24:59.462Z,26.58
2023-06-15T17:27:27.412Z,26.41
2023-06-15T17:29:55.661Z,26.28
2023-06-15T17:32:23.949Z,26.15
2023-06-15T17:34:53.741Z,26.06
2023-06-15T17:37:22.619Z,25.95
2023-06-15T17:39:51.403Z,25.86
2023-06-15T17:42:19.355Z,25.75
2023-06-15T17:44:47.233Z,25.65
2023-06-15T17:47:15.242Z,25.58
2023-06-15T17:49:43.233Z,25.51
2023-06-15T17:52:11.771Z,25.44
2023-06-15T17:54:40.097Z,25.38
2023-06-15T17:57:08.040Z,25.32
2023-06-15T17:59:35.977Z,25.25
2023-06-15T18:02:05.976Z,25.19
2023-06-15T18:04:33.999Z,25.12
2023-06-15T18:07:05.201Z,25.07
2023-06-15T18:09:33.143Z,25.00
2023-06-15T18:12:01.055Z,24.94
2023-06-15T18:14:29.258Z,24.87
2023-06-15T18:16:58.560Z,24.83
2023-06-15T18:19:26.466Z,24.78
2023-06-15T18:21:54.399Z,24.70
2023-06-15T18:24:22.712Z,24.64
2023-06-15T18:26:51.190Z,24.55
2023-06-15T18:29:19.575Z,24.47
2023-06-15T18:31:47.494Z,24.39
2023-06-15T18:34:16.509Z,24.32
2023-06-15T18:36:44.497Z,24.24
2023-06-15T18:39:13.222Z,24.16
2023-06-15T18:41:41.138Z,24.09
2023-06-15T18:44:08.985Z,24.02
2023-06-15T18:46:37.866Z,23.95
2023-06-15T18:49:05.793Z,23.86
2023-06-15T18:51:34.176Z,23.79
2023-06-15T18:54:02.056Z,23.72
2023-06-15T18:56:30.022Z,23.65
2023-06-15T18:58:58.155Z,23.56
2023-06-15T19:01:26.589Z,23.47
2023-06-15T19:03:55.075Z,23.37
2023-06-15T19:06:23.028Z,23.27
2023-06-15T19:08:50.996Z,23.20
2023-06-15T19:11:18.862Z,23.11
2023-06-15T19:13:47.278Z,23.01
2023-06-15T19:16:15.664Z,22.92
2023-06-15T19:18:44.097Z,22.83
2023-06-15T19:21:12.196Z,22.73
2023-06-15T19:23:40.129Z,22.62
2023-06-15T19:26:08.283Z,22.53
2023-06-15T19:28:38.318Z,22.44
2023-06-15T19:31:06.412Z,22.36
2023-06-15T19:33:34.283Z,22.27
2023-06-15T19:36:02.198Z,22.22
2023-06-15T19:38:30.160Z,22.18
2023-06-15T19:40:58.433Z,22.12
2023-06-15T19:43:28.477Z,22.03
2023-06-15T19:46:00.867Z,21.94
2023-06-15T19:48:28.872Z,21.85
2023-06-15T19:50:58.939Z,21.75
2023-06-15T19:53:28.355Z,21.66
2023-06-15T19:55:56.180Z,21.54
2023-06-15T19:58:24.156Z,21.48
2023-06-15T20:00:54.814Z,21.37
2023-06-15T20:03:22.858Z,21.27
2023-06-15T20:05:51.075Z,21.18
2023-06-15T20:08:19.005Z,21.10
2023-06-15T20:10:46.763Z,21.05
2023-06-15T20:13:14.698Z,20.99
2023-06-15T20:15:43.208Z,20.89
2023-06-15T20:18:11.076Z,20.80
2023-06-15T20:20:39.114Z,20.70
2023-06-15T20:23:08.369Z,20.62
2023-06-15T20:25:36.884Z,20.56
2023-06-15T20:28:05.739Z,20.50
2023-06-15T20:30:33.963Z,20.41
2023-06-15T20:33:01.903Z,20.35
2023-06-15T20:35:30.675Z,20.37
2023-06-15T20:37:58.620Z,20.36
2023-06-15T20:40:26.815Z,20.39
2023-06-15T20:42:55.121Z,20.38
2023-06-15T20:45:24.843Z,20.34
2023-06-15T20:47:52.839Z,20.26
2023-06-15T20:50:23.719Z,20.19
2023-06-15T20:52:52.124Z,20.11
2023-06-15T20:55:21.153Z,20.02
2023-06-15T20:57:49.141Z,19.90
2023-06-15T21:00:19.509Z,19.77
2023-06-15T21:02:47.604Z,19.64
2023-06-15T21:05:16.214Z,19.53
2023-06-15T21:07:44.098Z,19.43
2023-06-15T21:10:12.445Z,19.32
2023-06-15T21:12:40.444Z,19.26
2023-06-15T21:15:08.346Z,19.18
2023-06-15T21:17:36.775Z,19.12
2023-06-15T21:20:05.000Z,19.09
2023-06-15T21:22:32.875Z,19.06
2023-06-15T21:25:00.866Z,19.03
2023-06-15T21:27:28.795Z,19.00
2023-06-15T21:29:57.388Z,18.98
2023-06-15T21:32:26.980Z,18.97
2023-06-15T21:34:55.273Z,18.96
2023-06-15T21:37:23.161Z,18.98
2023-06-15T21:39:51.101Z,18.99
2023-06-15T21:42:20.427Z,19.00
2023-06-15T21:44:49.695Z,19.01
2023-06-15T21:47:17.503Z,19.03
2023-06-15T21:49:45.475Z,19.06
2023-06-15T21:52:14.616Z,19.10
2023-06-15T21:54:43.266Z,19.12
2023-06-15T21:57:13.334Z,19.17
2023-06-15T21:59:41.089Z,19.20
2023-06-15T22:02:08.881Z,19.22
2023-06-15T22:04:36.782Z,19.24
2023-06-15T22:07:04.935Z,19.25
2023-06-15T22:09:34.506Z,19.26
2023-06-15T22:12:06.914Z,19.25
2023-06-15T22:14:35.627Z,19.23
2023-06-15T22:17:03.540Z,19.22
2023-06-15T22:19:31.713Z,19.22
2023-06-15T22:22:01.767Z,19.22
2023-06-15T22:24:29.769Z,19.21
2023-06-15T22:26:57.721Z,19.21
2023-06-15T22:29:25.439Z,19.13
2023-06-15T22:31:53.256Z,19.04
2023-06-15T22:34:21.248Z,18.95
2023-06-15T22:36:49.320Z,18.85
2023-06-15T22:39:17.072Z,18.76
2023-06-15T22:41:44.941Z,18.70
2023-06-15T22:44:15.576Z,18.66
2023-06-15T22:46:45.192Z,18.60
2023-06-15T22:49:13.880Z,18.56
2023-06-15T22:51:45.465Z,18.52
2023-06-15T22:54:13.306Z,18.51
2023-06-15T22:56:42.272Z,18.51
2023-06-15T22:59:09.960Z,18.52
2023-06-15T23:01:37.654Z,18.56
2023-06-15T23:04:05.666Z,18.63
2023-06-15T23:06:43.187Z,18.69
2023-06-15T23:09:14.101Z,18.74
2023-06-15T23:11:41.864Z,18.75
2023-06-15T23:14:10.221Z,18.73
2023-06-15T23:16:38.116Z,18.73
2023-06-15T23:19:06.845Z,18.73
2023-06-15T23:21:35.451Z,18.73
2023-06-15T23:24:06.803Z,18.73
2023-06-15T23:26:37.873Z,18.74
2023-06-15T23:29:05.607Z,18.74
2023-06-15T23:31:33.579Z,18.74
2023-06-15T23:34:01.474Z,18.70
2023-06-15T23:36:29.166Z,18.62
2023-06-15T23:38:57.193Z,18.53
2023-06-15T23:41:24.838Z,18.43
2023-06-15T23:43:52.903Z,18.31
2023-06-15T23:46:20.839Z,18.16
2023-06-15T23:48:48.602Z,18.04
2023-06-15T23:51:16.339Z,17.94
2023-06-15T23:53:44.092Z,17.85
2023-06-15T23:56:12.502Z,17.78
2023-06-15T23:58:40.249Z,17.69
